Time;durP1;ratioP1;P1;durP2;ratioP2;P2;SDS_P1;SDS_P2;PMS_P1;PMS_P2;Temp;Humidity;BMP_temperature;BMP_pressure;BME280_temperature;BME280_humidity;BME280_pressure;Samples;Min_cycle;Max_cycle;Signal;HPM_P1;HPM_P2
2023/03/06 00:00:25;;;;;;;;;3.50;3.50;;;;;4.55;70.63;100876.13;5013876;28;11574;-65
2023/03/06 00:02:52;;;;;;;;;1.00;1.00;;;;;4.52;70.24;100873.75;5028303;28;11472;-65
2023/03/06 00:05:18;;;;;;;;;0.00;0.00;;;;;4.50;70.71;100869.56;5018505;28;11466;-65
2023/03/06 00:07:45;;;;;;;;;0.00;0.00;;;;;4.46;70.48;100856.56;5024187;28;12246;-65
2023/03/06 00:10:20;;;;;;;;;0.00;0.00;;;;;4.43;70.45;100861.38;5028821;28;11427;-66
2023/03/06 00:12:49;;;;;;;;;1.00;1.00;;;;;4.41;70.68;100855.34;5030178;28;12151;-65
2023/03/06 00:15:16;;;;;;;;;1.00;1.00;;;;;4.40;71.42;100849.16;5029027;28;11506;-65
2023/03/06 00:17:42;;;;;;;;;0.00;0.00;;;;;4.42;71.19;100847.22;5025008;28;12221;-65
2023/03/06 00:20:10;;;;;;;;;0.00;0.00;;;;;4.42;71.26;100847.22;5023566;28;11505;-66
2023/03/06 00:22:37;;;;;;;;;0.00;0.00;;;;;4.40;71.04;100835.00;5009859;28;11475;-67
2023/03/06 00:25:05;;;;;;;;;0.00;0.00;;;;;4.42;70.84;100833.03;5024213;28;11441;-66
2023/03/06 00:27:32;;;;;;;;;0.00;0.00;;;;;4.41;71.19;100829.50;5021485;28;11432;-65
2023/03/06 00:29:59;;;;;;;;;1.75;0.50;;;;;4.41;71.48;100826.84;5027177;28;11564;-65
2023/03/06 00:32:27;;;;;;;;;0.75;0.50;;;;;4.41;71.17;100821.53;5026970;28;11431;-65
2023/03/06 00:34:54;;;;;;;;;0.00;0.00;;;;;4.42;71.59;100825.06;5040684;28;11519;-65
2023/03/06 00:37:23;;;;;;;;;1.00;0.50;;;;;4.42;71.38;100822.38;5044674;28;11536;-65
2023/03/06 00:39:50;;;;;;;;;0.00;0.00;;;;;4.42;71.12;100811.72;5028651;28;11433;-65
2023/03/06 00:42:18;;;;;;;;;0.50;0.50;;;;;4.43;71.68;100816.88;5030125;28;11447;-65
2023/03/06 00:44:44;;;;;;;;;0.00;0.00;;;;;4.42;71.47;100811.72;5043159;28;11453;-65
2023/03/06 00:47:11;;;;;;;;;1.00;0.25;;;;;4.40;71.28;100803.03;5041427;28;11445;-65
2023/03/06 00:49:38;;;;;;;;;0.00;0.00;;;;;4.38;71.40;100799.69;5010686;28;11481;-66
2023/03/06 00:52:04;;;;;;;;;0.00;0.00;;;;;4.38;72.01;100795.19;5013022;28;11483;-66
2023/03/06 00:54:31;;;;;;;;;0.00;0.00;;;;;4.37;71.76;100793.50;5030849;28;11448;-66
2023/03/06 00:56:57;;;;;;;;;0.50;0.50;;;;;4.36;71.74;100791.00;5026932;28;11580;-65
2023/03/06 00:59:24;;;;;;;;;0.00;0.00;;;;;4.36;72.10;100801.66;5029248;28;11472;-66
2023/03/06 01:01:51;;;;;;;;;0.00;0.00;;;;;4.36;72.36;100796.34;5018957;28;11465;-66
2023/03/06 01:04:18;;;;;;;;;0.00;0.00;;;;;4.33;72.30;100792.16;5031460;28;11458;-66
2023/03/06 01:06:46;;;;;;;;;0.50;0.25;;;;;4.31;72.26;100791.47;5032940;28;11450;-66
2023/03/06 01:09:13;;;;;;;;;0.00;0.00;;;;;4.32;72.08;100795.81;5022648;28;11501;-66
2023/03/06 01:11:39;;;;;;;;;0.00;0.00;;;;;4.30;72.00;100795.16;5026510;28;11429;-65
2023/03/06 01:14:06;;;;;;;;;0.00;0.00;;;;;4.30;72.34;100792.47;5025688;28;11496;-66
2023/03/06 01:16:32;;;;;;;;;0.00;0.00;;;;;4.30;72.32;100792.47;5032448;28;11550;-66
2023/03/06 01:18:59;;;;;;;;;1.00;0.00;;;;;4.30;72.44;100787.16;5029255;28;11447;-66
2023/03/06 01:21:25;;;;;;;;;0.00;0.00;;;;;4.32;72.59;100786.97;5041598;28;11452;-66
2023/03/06 01:23:52;;;;;;;;;0.00;0.00;;;;;4.30;72.54;100779.16;5029849;28;11442;-66
2023/03/06 01:26:18;;;;;;;;;0.00;0.00;;;;;4.28;72.34;100774.97;5032147;28;11451;-66
2023/03/06 01:28:44;;;;;;;;;0.00;0.00;;;;;4.28;72.50;100783.78;5032203;28;11434;-66
2023/03/06 01:31:11;;;;;;;;;0.00;0.00;;;;;4.24;72.56;100782.41;5032163;28;11445;-66
2023/03/06 01:33:37;;;;;;;;;0.00;0.00;;;;;4.21;72.90;100780.06;5047253;28;11443;-66
2023/03/06 01:36:07;;;;;;;;;0.00;0.00;;;;;4.22;73.16;100779.09;5025281;28;11429;-66
2023/03/06 01:38:34;;;;;;;;;0.00;0.00;;;;;4.20;73.13;100775.72;5043421;28;11516;-67
2023/03/06 01:41:03;;;;;;;;;0.00;0.00;;;;;4.19;72.59;100771.41;5030907;28;12274;-67
2023/03/06 01:43:33;;;;;;;;;0.00;0.00;;;;;4.19;72.92;100769.56;5026935;28;11455;-67
2023/03/06 01:46:21;;;;;;;;;0.00;0.00;;;;;4.19;72.94;100771.41;5020074;28;11469;-67
2023/03/06 01:48:52;;;;;;;;;0.00;0.00;;;;;4.18;73.18;100764.41;5025306;28;11506;-66
2023/03/06 01:51:19;;;;;;;;;0.00;0.00;;;;;4.17;73.21;100765.38;5021936;28;11496;-66
2023/03/06 01:53:47;;;;;;;;;0.00;0.00;;;;;4.16;73.28;100755.72;5022766;28;11477;-66
2023/03/06 01:56:14;;;;;;;;;0.00;0.00;;;;;4.13;73.28;100759.53;5019015;28;12150;-67
2023/03/06 01:58:43;;;;;;;;;0.00;0.00;;;;;4.13;73.37;100756.88;5026258;28;11455;-66
2023/03/06 02:01:13;;;;;;;;;1.00;1.00;;;;;4.14;73.48;100749.72;5030284;28;11529;-66
2023/03/06 02:03:42;;;;;;;;;0.00;0.00;;;;;4.16;73.34;100750.38;5023672;28;11558;-67
2023/03/06 02:06:09;;;;;;;;;0.00;0.00;;;;;4.16;73.45;100748.56;5022490;28;11440;-66
2023/03/06 02:08:35;;;;;;;;;0.00;0.00;;;;;4.18;73.58;100740.44;5028676;28;12245;-66
2023/03/06 02:11:17;;;;;;;;;0.00;0.00;;;;;4.20;73.16;100738.44;5031355;28;11431;-67
2023/03/06 02:13:47;;;;;;;;;0.00;0.00;;;;;4.18;73.38;100732.44;5025461;28;11492;-67
2023/03/06 02:16:16;;;;;;;;;0.00;0.00;;;;;4.18;73.88;100743.94;5020048;28;11451;-66
2023/03/06 02:18:44;;;;;;;;;1.50;0.50;;;;;4.17;73.37;100734.28;5023786;28;11444;-66
2023/03/06 02:21:19;;;;;;;;;0.00;0.00;;;;;4.17;73.81;100739.59;5011429;28;12252;-66
2023/03/06 02:24:15;;;;;;;;;0.00;0.00;;;;;4.16;73.48;100737.91;5033598;28;11419;-66
2023/03/06 02:26:44;;;;;;;;;0.00;0.00;;;;;4.14;73.34;100736.41;5037527;28;11465;-66
2023/03/06 02:29:10;;;;;;;;;0.00;0.00;;;;;4.14;73.96;100734.56;5034552;28;11479;-66
2023/03/06 02:31:37;;;;;;;;;0.00;0.00;;;;;4.12;73.77;100719.72;5028190;28;11441;-66
2023/03/06 02:34:15;;;;;;;;;0.00;0.00;;;;;4.14;74.67;100715.09;5021421;28;11460;-66
2023/03/06 02:36:45;;;;;;;;;0.00;0.00;;;;;4.16;74.62;100713.94;5024923;28;11429;-66
2023/03/06 02:39:12;;;;;;;;;0.00;0.00;;;;;4.17;74.60;100704.97;5019242;28;11442;-67
2023/03/06 02:41:39;;;;;;;;;0.00;0.00;;;;;4.16;74.68;100697.09;5023685;28;11448;-67
2023/03/06 02:44:06;;;;;;;;;0.00;0.00;;;;;4.15;75.02;100696.28;5031982;28;12296;-66
2023/03/06 02:46:34;;;;;;;;;0.00;0.00;;;;;4.13;74.82;100700.06;5044208;28;11434;-66
2023/03/06 02:49:00;;;;;;;;;0.00;0.00;;;;;4.12;75.08;100693.91;5016147;28;11440;-66
2023/03/06 02:51:27;;;;;;;;;0.00;0.00;;;;;4.11;75.05;100691.41;5029340;28;11501;-67
2023/03/06 02:53:53;;;;;;;;;0.00;0.00;;;;;4.14;75.09;100685.78;5013608;28;11467;-66
2023/03/06 02:56:20;;;;;;;;;0.00;0.00;;;;;4.14;75.88;100689.28;5031338;28;11459;-66
2023/03/06 02:58:47;;;;;;;;;0.00;0.00;;;;;4.17;75.75;100681.00;5042145;28;11459;-66
2023/03/06 03:01:14;;;;;;;;;0.00;0.00;;;;;4.19;75.27;100678.16;5025314;28;11465;-66
2023/03/06 03:03:41;;;;;;;;;0.00;0.00;;;;;4.23;75.75;100676.84;5029151;28;12202;-66
2023/03/06 03:06:09;;;;;;;;;0.00;0.00;;;;;4.25;75.42;100677.50;5028639;28;11451;-66
2023/03/06 03:08:35;;;;;;;;;0.00;0.00;;;;;4.23;75.99;100671.53;5028883;28;11458;-65
2023/03/06 03:11:03;;;;;;;;;0.25;0.25;;;;;4.21;75.86;100665.50;5022951;28;12276;-66
2023/03/06 03:13:37;;;;;;;;;0.00;0.00;;;;;4.18;75.71;100666.66;5026046;28;11500;-66
2023/03/06 03:16:09;;;;;;;;;0.00;0.00;;;;;4.18;75.70;100666.66;5022116;28;11580;-66
2023/03/06 03:18:36;;;;;;;;;0.00;0.00;;;;;4.18;75.99;100666.66;5028745;28;12161;-66
2023/03/06 03:21:06;;;;;;;;;0.00;0.00;;;;;4.18;76.34;100652.50;5045527;28;11496;-66
2023/03/06 03:23:33;;;;;;;;;0.00;0.00;;;;;4.16;76.29;100665.97;5029849;28;11420;-66
2023/03/06 03:26:18;;;;;;;;;0.00;0.00;;;;;4.14;76.13;100654.66;5044956;28;11450;-66
2023/03/06 03:29:00;;;;;;;;;0.00;0.00;;;;;4.12;76.56;100650.47;5021950;28;11438;-68
2023/03/06 03:31:27;;;;;;;;;0.00;0.00;;;;;4.08;76.40;100644.63;5027077;28;11456;-65
2023/03/06 03:33:53;;;;;;;;;0.00;0.00;;;;;4.06;76.56;100638.63;5028838;28;11441;-66
2023/03/06 03:36:21;;;;;;;;;0.00;0.00;;;;;4.02;77.32;100644.44;5045231;28;11459;-66
2023/03/06 03:38:48;;;;;;;;;0.00;0.00;;;;;4.03;77.19;100636.25;5034962;28;11509;-66
2023/03/06 03:41:14;;;;;;;;;0.00;0.00;;;;;4.06;77.51;100638.63;5024373;28;11453;-66
2023/03/06 03:43:41;;;;;;;;;0.00;0.00;;;;;4.08;77.45;100631.28;5023682;28;11432;-66
2023/03/06 03:46:08;;;;;;;;;0.00;0.00;;;;;4.10;77.43;100634.66;5008720;28;11474;-66
2023/03/06 03:48:35;;;;;;;;;0.00;0.00;;;;;4.11;77.59;100640.81;5030720;28;11465;-66
2023/03/06 03:51:10;;;;;;;;;0.75;0.00;;;;;4.12;77.52;100634.47;5021737;28;11566;-66
2023/03/06 03:53:40;;;;;;;;;0.00;0.00;;;;;4.10;77.66;100634.66;5039803;28;11450;-66
2023/03/06 03:56:09;;;;;;;;;0.00;0.00;;;;;4.10;77.96;100633.81;5042694;28;11577;-66
2023/03/06 03:58:43;;;;;;;;;0.75;0.75;;;;;3.99;77.69;100626.09;5041433;28;11576;-66
2023/03/06 04:01:10;;;;;;;;;0.00;0.00;;;;;3.95;78.10;100630.88;5015537;28;11471;-66
2023/03/06 04:03:37;;;;;;;;;0.50;0.00;;;;;3.95;78.32;100634.38;5021037;28;11598;-66
2023/03/06 04:06:06;;;;;;;;;2.00;0.00;;;;;4.00;78.15;100644.56;5027374;28;11427;-66
2023/03/06 04:08:32;;;;;;;;;0.00;0.00;;;;;4.01;78.55;100627.63;5019188;28;11464;-66
2023/03/06 04:10:59;;;;;;;;;0.00;0.00;;;;;4.07;78.34;100634.13;5025147;28;11518;-66
2023/03/06 04:13:26;;;;;;;;;1.50;0.75;;;;;4.09;78.63;100625.00;5021218;28;11512;-65
2023/03/06 04:15:54;;;;;;;;;1.00;1.00;;;;;4.06;78.38;100619.97;5029448;28;11484;-66
2023/03/06 04:18:22;;;;;;;;;0.25;0.25;;;;;3.97;78.33;100627.09;5046745;28;12532;-66
2023/03/06 04:20:51;;;;;;;;;1.00;0.00;;;;;4.01;79.06;100618.75;5048829;28;11580;-66
2023/03/06 04:23:20;;;;;;;;;1.00;0.50;;;;;4.06;78.98;100619.97;5026690;28;11534;-66
2023/03/06 04:25:46;;;;;;;;;0.00;0.00;;;;;4.09;79.07;100611.69;5016560;28;11577;-66
2023/03/06 04:28:13;;;;;;;;;0.00;0.00;;;;;4.13;79.03;100613.03;5044755;28;11593;-66
2023/03/06 04:30:40;;;;;;;;;1.00;1.00;;;;;4.16;78.83;100612.69;5032259;28;11557;-66
2023/03/06 04:33:07;;;;;;;;;0.00;0.00;;;;;4.21;78.99;100618.41;5033219;28;11575;-66
2023/03/06 04:35:34;;;;;;;;;1.00;1.00;;;;;4.21;78.88;100606.88;5028032;28;11465;-66
2023/03/06 04:38:05;;;;;;;;;1.00;0.00;;;;;4.20;78.67;100613.22;5027150;28;11456;-66
2023/03/06 04:40:34;;;;;;;;;0.25;0.25;;;;;4.18;78.80;100602.72;5029687;28;11538;-66
2023/03/06 04:43:03;;;;;;;;;1.00;1.00;;;;;4.13;78.21;100604.19;5024298;28;11436;-66
2023/03/06 04:45:31;;;;;;;;;3.00;1.00;;;;;4.09;78.67;100610.81;5014055;28;11528;-66
2023/03/06 04:47:57;;;;;;;;;0.00;0.00;;;;;4.03;78.35;100608.81;5024554;28;11439;-66
2023/03/06 04:50:26;;;;;;;;;0.25;0.25;;;;;3.92;79.04;100610.72;5013264;28;11450;-66
2023/03/06 04:52:53;;;;;;;;;0.00;0.00;;;;;3.95;79.20;100606.91;5028882;28;11475;-66
2023/03/06 04:55:19;;;;;;;;;0.25;0.25;;;;;3.99;79.51;100610.09;5024718;28;11451;-66
2023/03/06 04:57:46;;;;;;;;;0.25;0.00;;;;;4.04;79.11;100610.47;5024554;28;11515;-66
2023/03/06 05:00:18;;;;;;;;;0.00;0.00;;;;;4.02;78.75;100601.81;5021287;28;11543;-66
2023/03/06 05:02:44;;;;;;;;;0.00;0.00;;;;;3.96;78.51;100608.59;5024628;28;11435;-66
2023/03/06 05:05:12;;;;;;;;;1.00;0.00;;;;;3.95;78.66;100606.91;5041733;28;11546;-66
2023/03/06 05:07:38;;;;;;;;;0.00;0.00;;;;;3.95;78.74;100599.75;5024630;28;11608;-66
2023/03/06 05:10:07;;;;;;;;;0.00;0.00;;;;;3.95;77.99;100602.44;5023352;28;11429;-66
2023/03/06 05:12:38;;;;;;;;;0.25;0.25;;;;;3.91;77.97;100609.06;5018190;28;11494;-66
2023/03/06 05:15:05;;;;;;;;;0.00;0.00;;;;;3.86;77.84;100610.53;5025538;28;11455;-66
2023/03/06 05:17:32;;;;;;;;;0.00;0.00;;;;;3.83;76.95;100608.19;5022547;28;11453;-66
2023/03/06 05:19:58;;;;;;;;;0.75;0.00;;;;;3.83;77.79;100609.00;5012906;28;11431;-66
2023/03/06 05:22:25;;;;;;;;;0.00;0.00;;;;;3.86;77.56;100607.88;5021537;28;11580;-66
2023/03/06 05:24:51;;;;;;;;;0.00;0.00;;;;;3.83;77.04;100610.84;5031735;28;11474;-66
2023/03/06 05:27:18;;;;;;;;;0.00;0.00;;;;;3.78;77.40;100611.31;5046591;28;12417;-66
2023/03/06 05:29:44;;;;;;;;;0.00;0.00;;;;;3.76;77.20;100609.78;5030780;28;11418;-65
2023/03/06 05:32:11;;;;;;;;;0.00;0.00;;;;;3.77;77.05;100604.31;5030425;28;11441;-65
2023/03/06 05:34:38;;;;;;;;;0.00;0.00;;;;;3.83;77.02;100611.66;5045446;22;11588;-62
2023/03/06 05:37:05;;;;;;;;;0.00;0.00;;;;;3.84;76.89;100607.19;5026595;28;11457;-62
2023/03/06 05:39:31;;;;;;;;;0.00;0.00;;;;;3.79;76.66;100612.97;5024805;28;11432;-65
2023/03/06 05:41:58;;;;;;;;;1.00;0.00;;;;;3.76;76.97;100599.13;5036764;28;11452;-65
2023/03/06 05:44:30;;;;;;;;;0.00;0.00;;;;;3.80;76.84;100608.47;5027539;28;11422;-64
2023/03/06 05:46:56;;;;;;;;;0.00;0.00;;;;;3.77;76.75;100603.47;4992886;28;11521;-65
2023/03/06 05:49:23;;;;;;;;;1.00;0.00;;;;;3.75;76.68;100598.31;5004296;28;11588;-64
2023/03/06 05:51:49;;;;;;;;;0.00;0.00;;;;;3.78;77.10;100600.66;5005935;28;11575;-66
2023/03/06 05:54:16;;;;;;;;;0.00;0.00;;;;;3.76;76.93;100599.97;5011500;28;11543;-64
2023/03/06 05:56:42;;;;;;;;;0.00;0.00;;;;;3.77;76.71;100599.00;5016616;28;12201;-65
2023/03/06 05:59:09;;;;;;;;;2.00;0.00;;;;;3.80;76.60;100605.81;5011864;28;11503;-62
2023/03/06 06:01:35;;;;;;;;;0.00;0.00;;;;;3.79;76.96;100606.81;5017545;28;11555;-67
2023/03/06 06:04:02;;;;;;;;;0.00;0.00;;;;;3.77;76.65;100604.31;5014957;28;11465;-70
2023/03/06 06:06:28;;;;;;;;;0.00;0.00;;;;;3.77;76.44;100612.31;5014372;28;11492;-64
2023/03/06 06:08:54;;;;;;;;;1.00;0.00;;;;;3.75;76.47;100616.09;5008635;28;11489;-65
2023/03/06 06:11:21;;;;;;;;;0.00;0.00;;;;;3.71;76.64;100615.56;5009014;28;12865;-65
2023/03/06 06:13:48;;;;;;;;;0.00;0.00;;;;;3.73;76.99;100602.97;5011031;28;12166;-64
2023/03/06 06:16:15;;;;;;;;;0.00;0.00;;;;;3.79;76.99;100617.47;5016208;28;11456;-64
2023/03/06 06:18:42;;;;;;;;;0.00;0.00;;;;;3.75;76.71;100610.78;5009717;28;11472;-66
2023/03/06 06:21:10;;;;;;;;;0.00;0.00;;;;;3.67;77.05;100612.38;5012431;28;11445;-65
2023/03/06 06:23:37;;;;;;;;;0.00;0.00;;;;;3.64;76.87;100611.84;5002813;28;11495;-65
2023/03/06 06:26:06;;;;;;;;;1.00;0.00;;;;;3.65;76.73;100603.72;4993281;28;11523;-64
2023/03/06 06:28:33;;;;;;;;;0.00;0.00;;;;;3.67;77.12;100600.91;5014336;28;11478;-65
2023/03/06 06:30:59;;;;;;;;;1.00;0.00;;;;;3.67;76.99;100599.06;5012453;28;11452;-64
2023/03/06 06:33:26;;;;;;;;;0.00;0.00;;;;;3.63;76.80;100602.22;5006146;28;11457;-65
2023/03/06 06:35:52;;;;;;;;;0.25;0.00;;;;;3.66;77.46;100604.56;5018132;28;11458;-65
2023/03/06 06:38:19;;;;;;;;;1.00;0.00;;;;;3.72;77.12;100603.94;5004584;28;12202;-65
2023/03/06 06:40:45;;;;;;;;;0.00;0.00;;;;;3.76;77.25;100605.28;5007982;28;11459;-65
2023/03/06 06:43:32;;;;;;;;;1.00;0.00;;;;;3.79;77.32;100610.31;4994426;28;11455;-65
2023/03/06 06:45:58;;;;;;;;;3.00;0.25;;;;;3.83;77.22;100616.16;5011741;28;12035;-64
2023/03/06 06:48:48;;;;;;;;;0.00;0.00;;;;;3.83;77.26;100614.31;5029864;28;11433;-65
2023/03/06 06:51:15;;;;;;;;;0.00;0.00;;;;;3.84;77.13;100616.00;5013384;28;11446;-63
2023/03/06 06:53:43;;;;;;;;;0.75;0.00;;;;;3.87;76.94;100620.19;5012107;28;11450;-64
2023/03/06 06:56:09;;;;;;;;;0.00;0.00;;;;;3.90;77.09;100628.69;5010956;28;11433;-64
2023/03/06 06:58:36;;;;;;;;;0.00;0.00;;;;;3.92;76.85;100629.34;5010922;28;11440;-64
2023/03/06 07:01:10;;;;;;;;;0.00;0.00;;;;;4.41;76.98;100618.97;5010976;28;11582;-62
2023/03/06 07:03:37;;;;;;;;;0.75;0.75;;;;;5.11;73.83;100621.38;5008917;28;11869;-64
2023/03/06 07:06:05;;;;;;;;;0.00;0.00;;;;;5.25;72.99;100622.56;4991030;28;11525;-63
2023/03/06 07:08:32;;;;;;;;;0.00;0.00;;;;;5.07;73.33;100624.56;4989909;28;11500;-64
2023/03/06 07:11:06;;;;;;;;;0.00;0.00;;;;;4.84;73.41;100621.66;4991179;28;11443;-60
2023/03/06 07:13:33;;;;;;;;;0.00;0.00;;;;;4.70;74.15;100623.13;4989711;28;11596;-64
2023/03/06 07:16:00;;;;;;;;;0.00;0.00;;;;;4.63;74.38;100620.25;4989342;28;11535;-66
2023/03/06 07:18:26;;;;;;;;;1.00;1.00;;;;;4.59;74.37;100626.91;4991176;28;11490;-68
2023/03/06 07:20:53;;;;;;;;;0.00;0.00;;;;;4.57;74.24;100623.53;5002295;28;11560;-68
2023/03/06 07:23:20;;;;;;;;;0.25;0.25;;;;;4.72;74.97;100629.09;5010292;28;12311;-67
2023/03/06 07:25:46;;;;;;;;;0.00;0.00;;;;;4.92;74.55;100625.16;5010031;28;12179;-68
2023/03/06 07:28:13;;;;;;;;;2.00;2.00;;;;;5.05;74.17;100627.34;5010337;28;11467;-68
2023/03/06 07:30:40;;;;;;;;;1.00;1.00;;;;;5.08;73.41;100620.88;5010528;28;11431;-68
2023/03/06 07:33:07;;;;;;;;;1.00;1.00;;;;;5.04;73.70;100627.53;5010565;28;11434;-68
2023/03/06 07:35:33;;;;;;;;;0.00;0.00;;;;;4.99;73.68;100624.53;5010232;28;11486;-69
2023/03/06 07:38:00;;;;;;;;;3.50;0.50;;;;;4.94;73.79;100625.84;4994670;28;11462;-68
2023/03/06 07:40:26;;;;;;;;;3.50;3.00;;;;;4.90;73.95;100626.31;4990996;28;12166;-67
2023/03/06 07:42:54;;;;;;;;;2.00;2.00;;;;;4.84;73.89;100626.97;4990693;28;11503;-68
2023/03/06 07:45:41;;;;;;;;;0.00;0.00;;;;;4.79;73.77;100616.81;5004548;28;11619;-67
2023/03/06 07:48:08;;;;;;;;;0.00;0.00;;;;;4.75;73.73;100622.63;5010302;28;11429;-68
2023/03/06 07:50:35;;;;;;;;;2.00;1.00;;;;;4.72;73.96;100615.78;5010485;28;11537;-67
2023/03/06 07:53:01;;;;;;;;;2.00;1.00;;;;;4.77;74.56;100620.63;5013585;28;11541;-67
2023/03/06 07:55:28;;;;;;;;;0.00;0.00;;;;;4.74;74.10;100613.78;5014136;28;11464;-67
2023/03/06 07:57:54;;;;;;;;;0.00;0.00;;;;;4.79;74.12;100610.63;5010874;28;12177;-66
2023/03/06 08:00:21;;;;;;;;;0.75;0.75;;;;;4.81;73.94;100613.97;4994831;28;11445;-68
2023/03/06 08:02:48;;;;;;;;;0.00;0.00;;;;;4.87;73.75;100610.66;4994507;28;11487;-69
2023/03/06 08:05:16;;;;;;;;;0.00;0.00;;;;;4.95;74.26;100616.84;4994418;28;11553;-67
2023/03/06 08:07:44;;;;;;;;;1.00;0.00;;;;;5.00;72.79;100615.53;4994584;28;12208;-67
2023/03/06 08:10:15;;;;;;;;;0.50;0.00;;;;;5.05;73.37;100616.69;4994640;28;11466;-69
2023/03/06 08:12:42;;;;;;;;;0.00;0.00;;;;;5.13;73.16;100618.53;4996376;28;11587;-69
2023/03/06 08:15:10;;;;;;;;;0.00;0.00;;;;;5.19;73.20;100615.22;5008474;28;11454;-69
2023/03/06 08:17:37;;;;;;;;;1.00;0.00;;;;;5.20;71.67;100616.88;4998835;28;11451;-69
2023/03/06 08:20:04;;;;;;;;;0.00;0.00;;;;;5.25;72.48;100616.41;4994024;28;12198;-68
2023/03/06 08:22:32;;;;;;;;;0.00;0.00;;;;;5.37;72.28;100615.06;4994101;28;11473;-68
2023/03/06 08:24:59;;;;;;;;;0.00;0.00;;;;;5.39;71.15;100613.09;4993708;28;12226;-69
2023/03/06 08:27:25;;;;;;;;;0.00;0.00;;;;;5.39;70.26;100613.91;4992705;28;12135;-66
2023/03/06 08:29:52;;;;;;;;;0.00;0.00;;;;;5.49;70.40;100611.06;4994901;28;11608;-67
2023/03/06 08:32:18;;;;;;;;;0.00;0.00;;;;;5.62;69.57;100608.72;5011044;28;11576;-69
2023/03/06 08:34:45;;;;;;;;;1.00;0.50;;;;;5.72;68.83;100613.06;5012801;28;12179;-68
2023/03/06 08:37:11;;;;;;;;;0.00;0.00;;;;;5.78;68.69;100607.88;5013543;28;11132;-66
2023/03/06 08:39:38;;;;;;;;;0.00;0.00;;;;;5.88;67.16;100605.03;5013415;28;12283;-67
2023/03/06 08:42:04;;;;;;;;;0.50;0.00;;;;;5.84;66.32;100607.22;5013426;28;11118;-68
2023/03/06 08:44:31;;;;;;;;;0.00;0.00;;;;;5.84;66.99;100611.72;5003531;28;11937;-68
2023/03/06 08:46:57;;;;;;;;;0.00;0.00;;;;;5.85;66.46;100614.22;4993636;28;11199;-68
2023/03/06 08:49:24;;;;;;;;;0.00;0.00;;;;;5.92;66.26;100614.41;4997740;28;11458;-66
2023/03/06 08:51:50;;;;;;;;;11.75;11.75;;;;;5.99;66.45;100612.72;5013073;28;11444;-68
2023/03/06 08:54:17;;;;;;;;;12.00;8.00;;;;;6.11;66.08;100613.19;5013049;28;12280;-68
2023/03/06 08:56:43;;;;;;;;;2.00;1.00;;;;;6.20;65.19;100609.50;5013205;28;11563;-68
2023/03/06 08:59:12;;;;;;;;;0.00;0.00;;;;;6.25;64.65;100614.34;5013154;28;11328;-68
2023/03/06 09:01:39;;;;;;;;;0.00;0.00;;;;;6.29;63.98;100613.81;5013312;28;11238;-66
2023/03/06 09:04:08;;;;;;;;;6.50;6.00;;;;;6.39;63.00;100613.59;5001510;28;11867;-68
2023/03/06 09:06:38;;;;;;;;;4.75;4.00;;;;;6.42;62.53;100603.41;4993355;28;11460;-65
2023/03/06 09:09:06;;;;;;;;;0.00;0.00;;;;;6.52;62.12;100599.69;4992648;28;11149;-68
2023/03/06 09:11:32;;;;;;;;;0.00;0.00;;;;;6.58;61.66;100594.50;4993771;28;11114;-66
2023/03/06 09:13:59;;;;;;;;;24.50;18.00;;;;;6.64;60.49;100600.97;4994321;28;11103;-67
2023/03/06 09:16:25;;;;;;;;;28.25;24.75;;;;;6.68;59.48;100599.59;5002900;28;11603;-69
2023/03/06 09:18:53;;;;;;;;;2.00;2.00;;;;;6.69;58.12;100593.28;5014113;28;11517;-68
2023/03/06 09:21:20;;;;;;;;;0.50;0.50;;;;;6.64;57.87;100592.94;5013525;28;11220;-68
2023/03/06 09:23:47;;;;;;;;;0.00;0.00;;;;;6.74;58.09;100588.22;5013212;28;10953;-68
2023/03/06 09:26:13;;;;;;;;;0.00;0.00;;;;;6.86;56.83;100599.38;5012972;28;11540;-68
2023/03/06 09:28:40;;;;;;;;;0.50;0.50;;;;;6.88;55.58;100589.31;5013156;28;10906;-68
2023/03/06 09:31:11;;;;;;;;;0.00;0.00;;;;;6.80;56.41;100594.69;4998071;28;10893;-69
2023/03/06 09:33:38;;;;;;;;;0.00;0.00;;;;;6.79;57.22;100593.03;5012932;28;11053;-69
2023/03/06 09:36:06;;;;;;;;;0.00;0.00;;;;;6.80;57.13;100594.69;5012594;28;10870;-68
2023/03/06 09:38:33;;;;;;;;;0.00;0.00;;;;;6.78;55.59;100594.06;5012603;28;11757;-69
2023/03/06 09:41:06;;;;;;;;;0.00;0.00;;;;;6.68;54.96;100599.59;5012733;28;11093;-69
2023/03/06 09:43:43;;;;;;;;;0.00;0.00;;;;;6.61;55.03;100594.16;5011680;28;11678;-69
2023/03/06 09:46:45;;;;;;;;;0.00;0.00;;;;;6.69;56.10;100595.94;5011998;28;10953;-69
2023/03/06 09:49:11;;;;;;;;;0.00;0.00;;;;;6.80;56.80;100592.84;5009955;28;11017;-68
2023/03/06 09:51:56;;;;;;;;;0.00;0.00;;;;;6.84;56.17;100599.53;5012155;28;10776;-68
2023/03/06 09:54:45;;;;;;;;;0.00;0.00;;;;;6.91;55.42;100607.69;5011905;28;10951;-67
2023/03/06 09:57:27;;;;;;;;;1.25;0.00;;;;;6.84;55.57;100602.19;5012180;28;10936;-69
2023/03/06 09:59:58;;;;;;;;;0.00;0.00;;;;;6.82;55.79;100596.19;5009553;28;11110;-66
2023/03/06 10:02:40;;;;;;;;;0.00;0.00;;;;;6.90;55.89;100593.47;4992455;28;11037;-67
2023/03/06 10:05:24;;;;;;;;;0.00;0.00;;;;;6.94;55.09;100593.97;4992029;28;10899;-69
2023/03/06 10:08:00;;;;;;;;;0.00;0.00;;;;;6.95;54.29;100587.59;4997857;28;11647;-68
2023/03/06 10:10:40;;;;;;;;;0.00;0.00;;;;;6.93;55.20;100590.47;5006440;28;10902;-67
2023/03/06 10:13:27;;;;;;;;;0.00;0.00;;;;;6.98;55.01;100589.09;5006628;28;11063;-69
2023/03/06 10:16:08;;;;;;;;;0.00;0.00;;;;;7.01;54.21;100584.22;5010223;28;11741;-69
2023/03/06 10:18:37;;;;;;;;;1.00;1.00;;;;;7.10;55.24;100585.00;5011834;28;10880;-69
2023/03/06 10:21:18;;;;;;;;;0.00;0.00;;;;;7.18;55.25;100579.59;5011669;28;11027;-69
2023/03/06 10:23:53;;;;;;;;;0.25;0.25;;;;;7.26;54.74;100573.34;5011536;28;10988;-69
2023/03/06 10:26:26;;;;;;;;;1.00;0.00;;;;;7.36;54.41;100573.91;5002237;28;10914;-70
2023/03/06 10:29:11;;;;;;;;;1.00;0.00;;;;;7.41;55.54;100575.06;5010564;28;10889;-68
2023/03/06 10:31:43;;;;;;;;;0.00;0.00;;;;;7.37;56.63;100571.06;4999874;28;10792;-68
2023/03/06 10:34:31;;;;;;;;;0.00;0.00;;;;;7.29;56.26;100568.47;4991771;28;11497;-68
2023/03/06 10:37:08;;;;;;;;;0.00;0.00;;;;;7.24;55.67;100562.81;5004526;28;10920;-70
2023/03/06 10:39:35;;;;;;;;;0.00;0.00;;;;;7.12;55.91;100565.06;5011526;28;11631;-66
2023/03/06 10:42:02;;;;;;;;;0.00;0.00;;;;;7.09;56.97;100562.75;5012266;28;10897;-68
2023/03/06 10:44:29;;;;;;;;;0.00;0.00;;;;;7.11;57.41;100566.06;5010945;28;11050;-68
2023/03/06 10:46:55;;;;;;;;;1.25;0.00;;;;;7.16;57.06;100560.19;4992358;28;10932;-68
2023/03/06 10:49:28;;;;;;;;;1.00;1.00;;;;;7.22;57.42;100564.00;4990478;28;11670;-68
2023/03/06 10:51:59;;;;;;;;;10.00;8.00;;;;;7.22;57.34;100555.97;4991693;28;11488;-69
2023/03/06 10:54:28;;;;;;;;;2.00;2.00;;;;;7.26;57.37;100560.78;4991125;28;11436;-68
2023/03/06 10:56:55;;;;;;;;;1.00;1.00;;;;;7.29;58.03;100554.22;4991477;28;11233;-67
2023/03/06 10:59:28;;;;;;;;;1.00;1.00;;;;;7.23;57.91;100555.78;4998716;28;10922;-69
2023/03/06 11:01:57;;;;;;;;;5.00;5.00;;;;;7.19;57.92;100554.47;5010956;28;10871;-69
2023/03/06 11:04:30;;;;;;;;;1.00;1.00;;;;;7.16;58.62;100563.69;5010629;28;11245;-67
2023/03/06 11:07:14;;;;;;;;;0.50;0.50;;;;;7.13;59.17;100552.50;5010896;28;11032;-68
2023/03/06 11:09:43;;;;;;;;;3.00;3.00;;;;;7.07;59.05;100562.09;5011097;28;10948;-70
2023/03/06 11:12:18;;;;;;;;;5.00;5.00;;;;;7.03;60.04;100552.75;5010884;28;11158;-66
2023/03/06 11:14:45;;;;;;;;;6.50;6.50;;;;;6.94;60.15;100549.31;5009321;28;11481;-69
2023/03/06 11:17:29;;;;;;;;;8.25;7.00;;;;;6.93;60.48;100544.97;4992114;28;11222;-69
2023/03/06 11:20:15;;;;;;;;;2.00;2.00;;;;;6.98;60.60;100546.28;4991111;28;11267;-67
2023/03/06 11:22:47;;;;;;;;;3.00;1.00;;;;;6.93;60.48;100542.28;4991116;28;11178;-68
2023/03/06 11:25:17;;;;;;;;;2.00;2.00;;;;;6.83;60.81;100533.66;4990883;28;10977;-68
2023/03/06 11:27:45;;;;;;;;;12.00;12.00;;;;;6.91;61.66;100530.94;4991111;28;10983;-69
2023/03/06 11:30:29;;;;;;;;;2.00;1.00;;;;;7.04;61.74;100530.31;4991902;28;11534;-69
2023/03/06 11:33:01;;;;;;;;;80.50;63.25;;;;;7.04;61.79;100524.16;4990780;28;11166;-70
2023/03/06 11:35:37;;;;;;;;;27.00;26.00;;;;;7.12;61.51;100516.06;4989602;28;11628;-67
2023/03/06 11:38:32;;;;;;;;;12.75;11.75;;;;;7.17;61.94;100519.88;4990461;28;11673;-66
2023/03/06 11:41:04;;;;;;;;;2.50;2.50;;;;;7.15;62.04;100511.19;4993336;28;11518;-64
2023/03/06 11:43:52;;;;;;;;;4.25;4.25;;;;;7.15;61.85;100508.50;4990773;28;11062;-66